createdAt,value
2023-05-06T00:00:58.697Z,26.93
2023-05-06T00:01:58.730Z,26.90
2023-05-06T00:02:58.825Z,26.90
2023-05-06T00:03:58.997Z,26.85
2023-05-06T00:04:58.879Z,26.85
2023-05-06T00:05:58.934Z,26.83
2023-05-06T00:06:58.988Z,26.83
2023-05-06T00:07:59.890Z,26.80
2023-05-06T00:08:59.086Z,26.81
2023-05-06T00:09:59.132Z,26.81
2023-05-06T00:10:59.245Z,26.81
2023-05-06T00:11:59.241Z,26.81
2023-05-06T00:12:59.290Z,26.81
2023-05-06T00:13:59.326Z,26.84
2023-05-06T00:14:59.375Z,26.85
2023-05-06T00:15:59.474Z,26.83
2023-05-06T00:16:59.454Z,26.85
2023-05-06T00:17:59.498Z,26.88
2023-05-06T00:18:59.538Z,26.85
2023-05-06T00:19:59.577Z,26.85
2023-05-06T00:20:59.629Z,26.85
2023-05-06T00:21:59.661Z,26.87
2023-05-06T00:22:59.715Z,26.87
2023-05-06T00:23:59.748Z,26.87
2023-05-06T00:24:59.782Z,26.87
2023-05-06T00:25:59.823Z,26.85
2023-05-06T00:26:59.891Z,26.88
2023-05-06T00:27:59.919Z,26.84
2023-05-06T00:28:59.970Z,26.84
2023-05-06T00:30:00.006Z,26.83
2023-05-06T00:31:00.095Z,26.84
2023-05-06T00:32:00.207Z,26.84
2023-05-06T00:33:00.209Z,26.81
2023-05-06T00:34:00.212Z,26.84
2023-05-06T00:35:00.268Z,26.83
2023-05-06T00:36:00.272Z,26.85
2023-05-06T00:37:00.310Z,26.83
2023-05-06T00:38:00.363Z,26.83
2023-05-06T00:39:00.394Z,26.83
2023-05-06T00:40:00.454Z,26.84
2023-05-06T00:41:00.499Z,26.83
2023-05-06T00:42:00.534Z,26.83
2023-05-06T00:43:00.646Z,26.83
2023-05-06T00:44:00.628Z,26.83
2023-05-06T00:45:00.667Z,26.81
2023-05-06T00:46:00.780Z,26.84
2023-05-06T00:47:00.793Z,26.83
2023-05-06T00:48:00.841Z,26.84
2023-05-06T00:49:00.849Z,26.84
2023-05-06T00:50:00.896Z,26.83
2023-05-06T00:51:00.940Z,26.83
2023-05-06T00:52:00.977Z,26.83
2023-05-06T00:53:01.029Z,26.83
2023-05-06T00:54:01.065Z,26.83
2023-05-06T00:55:01.113Z,26.84
2023-05-06T00:56:01.134Z,26.85
2023-05-06T00:57:01.196Z,26.81
2023-05-06T00:58:01.237Z,26.80
2023-05-06T00:59:01.278Z,26.83
2023-05-06T01:00:01.334Z,26.80
2023-05-06T01:01:01.334Z,26.78
2023-05-06T01:02:01.453Z,26.78
2023-05-06T01:03:01.430Z,26.80
2023-05-06T01:04:01.411Z,26.81
2023-05-06T01:05:01.380Z,26.83
2023-05-06T01:06:01.410Z,26.80
2023-05-06T01:07:01.419Z,26.81
2023-05-06T01:08:01.455Z,26.84
2023-05-06T01:09:01.455Z,26.84
2023-05-06T01:10:01.482Z,26.85
2023-05-06T01:11:01.494Z,26.84
2023-05-06T01:12:01.492Z,26.83
2023-05-06T01:13:01.533Z,26.83
2023-05-06T01:14:01.507Z,26.84
2023-05-06T01:15:01.581Z,26.83
2023-05-06T01:16:01.536Z,26.84
2023-05-06T01:17:01.595Z,26.87
2023-05-06T01:18:01.636Z,26.84
2023-05-06T01:19:01.579Z,26.85
2023-05-06T01:20:01.779Z,26.85
2023-05-06T01:21:01.628Z,26.87
2023-05-06T01:22:01.634Z,26.84
2023-05-06T01:23:01.661Z,26.84
2023-05-06T01:24:01.678Z,26.83
2023-05-06T01:25:01.733Z,26.84
2023-05-06T01:26:01.770Z,26.85
2023-05-06T01:27:01.852Z,26.84
2023-05-06T01:28:01.874Z,26.84
2023-05-06T01:29:01.918Z,26.85
2023-05-06T01:30:01.968Z,26.84
2023-05-06T01:31:02.162Z,26.84
2023-05-06T01:32:02.050Z,26.83
2023-05-06T01:33:02.135Z,26.84
2023-05-06T01:34:02.173Z,26.81
2023-05-06T01:35:02.195Z,26.83
2023-05-06T01:36:02.257Z,26.80
2023-05-06T01:37:02.302Z,26.80
2023-05-06T01:38:02.370Z,26.80
2023-05-06T01:39:02.417Z,26.78
2023-05-06T01:40:02.462Z,26.77
2023-05-06T01:41:02.504Z,26.76
2023-05-06T01:42:02.545Z,26.80
2023-05-06T01:43:02.621Z,26.78
2023-05-06T01:44:02.655Z,26.77
2023-05-06T01:45:02.684Z,26.78
2023-05-06T01:46:02.749Z,26.76
2023-05-06T01:47:02.707Z,26.80
2023-05-06T01:48:02.821Z,26.78
2023-05-06T01:49:02.733Z,26.78
2023-05-06T01:50:02.741Z,26.77
2023-05-06T01:51:02.748Z,26.76
2023-05-06T01:52:02.773Z,26.78
2023-05-06T01:53:02.810Z,26.77
2023-05-06T01:54:02.790Z,26.80
2023-05-06T01:55:02.808Z,26.77
2023-05-06T01:56:02.833Z,26.78
2023-05-06T01:57:02.855Z,26.78
2023-05-06T01:58:02.876Z,26.78
2023-05-06T01:59:02.882Z,26.80
2023-05-06T02:00:02.903Z,26.80
2023-05-06T02:01:02.919Z,26.80
2023-05-06T02:02:03.022Z,26.81
2023-05-06T02:03:03.093Z,26.81
2023-05-06T02:04:03.121Z,26.77
2023-05-06T02:05:03.003Z,26.80
2023-05-06T02:06:03.016Z,26.77
2023-05-06T02:07:03.020Z,26.78
2023-05-06T02:08:03.046Z,26.78
2023-05-06T02:09:03.090Z,26.77
2023-05-06T02:10:03.140Z,26.76
2023-05-06T02:11:03.194Z,26.74
2023-05-06T02:12:03.277Z,26.77
2023-05-06T02:13:03.360Z,26.76
2023-05-06T02:14:03.365Z,26.74
2023-05-06T02:15:03.419Z,26.73
2023-05-06T02:16:03.512Z,26.67
2023-05-06T02:17:03.538Z,26.67
2023-05-06T02:18:03.650Z,26.68
2023-05-06T02:19:03.708Z,26.68
2023-05-06T02:20:03.734Z,26.66
2023-05-06T02:21:03.762Z,26.64
2023-05-06T02:22:03.844Z,26.63
2023-05-06T02:23:03.913Z,26.61
2023-05-06T02:24:04.021Z,26.58
2023-05-06T02:25:04.121Z,26.56
2023-05-06T02:26:04.156Z,26.57
2023-05-06T02:27:04.223Z,26.57
2023-05-06T02:28:04.277Z,26.58
2023-05-06T02:29:04.338Z,26.57
2023-05-06T02:30:04.413Z,26.60
2023-05-06T02:31:04.565Z,26.60
2023-05-06T02:32:04.543Z,26.58
2023-05-06T02:33:04.649Z,26.58
2023-05-06T02:34:04.693Z,26.60
2023-05-06T02:35:04.798Z,26.60
2023-05-06T02:36:04.790Z,26.61
2023-05-06T02:37:04.853Z,26.61
2023-05-06T02:38:04.901Z,26.61
2023-05-06T02:39:04.963Z,26.63
2023-05-06T02:40:04.994Z,26.60
2023-05-06T02:41:05.057Z,26.64
2023-05-06T02:42:05.092Z,26.63
2023-05-06T02:43:05.240Z,26.61
2023-05-06T02:44:05.223Z,26.63
2023-05-06T02:45:05.254Z,26.63
2023-05-06T02:46:05.351Z,26.63
2023-05-06T02:47:05.358Z,26.63
2023-05-06T02:48:05.500Z,26.66
2023-05-06T02:49:05.451Z,26.66
2023-05-06T02:50:05.505Z,26.66
2023-05-06T02:51:05.654Z,26.66
2023-05-06T02:52:05.612Z,26.66
2023-05-06T02:53:05.666Z,26.63
2023-05-06T02:54:05.690Z,26.64
2023-05-06T02:55:05.752Z,26.63
2023-05-06T02:56:05.841Z,26.66
2023-05-06T02:57:05.862Z,26.66
2023-05-06T02:58:05.917Z,26.63
2023-05-06T02:59:05.957Z,26.64
2023-05-06T03:00:06.041Z,26.64
2023-05-06T03:01:06.090Z,26.66
2023-05-06T03:02:06.113Z,26.64
2023-05-06T03:03:06.217Z,26.60
2023-05-06T03:04:55.053Z,26.51
2023-05-06T03:05:55.065Z,26.51
2023-05-06T03:06:55.136Z,26.49
2023-05-06T03:07:55.085Z,26.42
2023-05-06T03:08:55.078Z,26.39
2023-05-06T03:09:55.106Z,26.36
2023-05-06T03:10:55.149Z,26.29
2023-05-06T03:11:55.137Z,26.23
2023-05-06T03:12:55.201Z,26.22
2023-05-06T03:13:55.165Z,26.15
2023-05-06T03:14:55.209Z,26.09
2023-05-06T03:15:55.197Z,26.09
2023-05-06T03:16:55.352Z,26.05
2023-05-06T03:17:55.305Z,25.96
2023-05-06T03:18:55.270Z,25.95
2023-05-06T03:19:55.302Z,25.91
2023-05-06T03:20:55.331Z,25.88
2023-05-06T03:21:55.340Z,25.81
2023-05-06T03:22:55.377Z,25.80
2023-05-06T03:23:55.399Z,25.77
2023-05-06T03:24:55.435Z,25.74
2023-05-06T03:25:55.437Z,25.68
2023-05-06T03:26:55.471Z,25.70
2023-05-06T03:27:55.486Z,25.67
2023-05-06T03:28:55.508Z,25.66
2023-05-06T03:29:55.539Z,25.63
2023-05-06T03:30:55.551Z,25.60
2023-05-06T03:31:55.683Z,25.59
2023-05-06T03:32:55.655Z,25.53
2023-05-06T03:33:55.627Z,25.53
2023-05-06T03:34:55.655Z,25.51
2023-05-06T03:35:55.700Z,25.49
2023-05-06T03:36:55.710Z,25.47
2023-05-06T03:37:55.786Z,25.46
2023-05-06T03:38:55.901Z,25.44
2023-05-06T03:39:55.899Z,25.42
2023-05-06T03:40:55.968Z,25.39
2023-05-06T03:41:56.024Z,25.37
2023-05-06T03:42:56.096Z,25.37
2023-05-06T03:43:56.153Z,25.33
2023-05-06T03:44:56.201Z,25.32
2023-05-06T03:45:56.311Z,25.29
2023-05-06T03:46:56.327Z,25.32
2023-05-06T03:47:58.322Z,25.29
2023-05-06T03:48:56.470Z,25.33
2023-05-06T03:49:56.535Z,25.33
2023-05-06T03:50:56.561Z,25.32
2023-05-06T03:51:56.603Z,25.29
2023-05-06T03:52:56.652Z,25.28
2023-05-06T03:53:56.700Z,25.28
2023-05-06T03:54:56.804Z,25.28
2023-05-06T03:55:56.790Z,25.28
2023-05-06T03:56:56.841Z,25.26
2023-05-06T03:57:56.891Z,25.26
2023-05-06T03:58:56.915Z,25.25
2023-05-06T03:59:56.959Z,25.25
2023-05-06T04:00:56.994Z,25.25
2023-05-06T04:01:57.076Z,25.22
2023-05-06T04:02:57.094Z,25.21
2023-05-06T04:03:57.123Z,25.21
2023-05-06T04:04:57.133Z,25.18
2023-05-06T04:05:57.171Z,25.18
2023-05-06T04:06:57.198Z,25.15
2023-05-06T04:07:57.250Z,25.15
2023-05-06T04:08:57.277Z,25.19
2023-05-06T04:09:57.313Z,25.19
2023-05-06T04:10:57.332Z,25.18
2023-05-06T04:11:57.396Z,25.15
2023-05-06T04:12:57.421Z,25.13
2023-05-06T04:13:57.431Z,25.15
2023-05-06T04:14:57.472Z,25.12
2023-05-06T04:15:57.508Z,25.13
2023-05-06T04:16:57.535Z,25.15
2023-05-06T04:17:57.580Z,25.11
2023-05-06T04:18:57.661Z,25.11
2023-05-06T04:19:57.628Z,25.08
2023-05-06T04:20:57.661Z,25.12
2023-05-06T04:21:57.694Z,25.11
2023-05-06T04:22:57.737Z,25.08
2023-05-06T04:23:57.754Z,25.08
2023-05-06T04:24:57.785Z,25.09
2023-05-06T04:25:57.888Z,25.09
2023-05-06T04:26:57.900Z,25.08
2023-05-06T04:27:57.868Z,25.09
2023-05-06T04:28:57.902Z,25.06
2023-05-06T04:29:57.929Z,25.08
2023-05-06T04:30:57.970Z,25.05
2023-05-06T04:31:58.080Z,25.04
2023-05-06T04:32:58.050Z,25.04
2023-05-06T04:33:58.080Z,25.02
2023-05-06T04:34:58.110Z,24.99
2023-05-06T04:35:58.129Z,25.01
2023-05-06T04:36:58.176Z,25.04
2023-05-06T04:37:58.216Z,25.04
2023-05-06T04:38:58.239Z,25.02
2023-05-06T04:39:58.270Z,24.99
2023-05-06T04:40:58.302Z,25.01
2023-05-06T04:41:58.341Z,24.99
2023-05-06T04:42:58.439Z,25.04
2023-05-06T04:43:58.410Z,25.01
2023-05-06T04:44:58.432Z,25.04
2023-05-06T04:45:58.495Z,25.01
2023-05-06T04:46:58.517Z,24.98
2023-05-06T04:47:58.564Z,24.91
2023-05-06T04:48:58.579Z,24.94
2023-05-06T04:49:58.618Z,24.89
2023-05-06T04:50:58.670Z,24.91
2023-05-06T04:51:58.698Z,24.87
2023-05-06T04:52:58.734Z,24.89
2023-05-06T04:53:58.783Z,24.85
2023-05-06T04:54:58.819Z,24.89
2023-05-06T04:55:58.863Z,24.91
2023-05-06T04:56:58.904Z,24.89
2023-05-06T04:57:58.950Z,24.88
2023-05-06T04:58:59.037Z,24.88
2023-05-06T04:59:59.010Z,24.87
2023-05-06T05:00:59.077Z,24.89
2023-05-06T05:01:59.110Z,24.85
2023-05-06T05:02:59.276Z,24.87
2023-05-06T05:03:59.189Z,24.87
2023-05-06T05:04:59.223Z,24.89
2023-05-06T05:05:59.292Z,24.92
2023-05-06T05:06:59.323Z,24.92
2023-05-06T05:07:59.390Z,24.94
2023-05-06T05:08:59.625Z,24.92
2023-05-06T05:09:59.497Z,24.88
2023-05-06T05:10:59.537Z,24.89
2023-05-06T05:11:59.581Z,24.89
2023-05-06T05:12:59.709Z,24.91
2023-05-06T05:14:01.936Z,24.88
2023-05-06T05:15:00.015Z,24.87
2023-05-06T05:15:59.985Z,24.88
2023-05-06T05:17:00.052Z,24.92
2023-05-06T05:18:00.204Z,24.91
2023-05-06T05:19:02.278Z,24.89
2023-05-06T05:20:00.217Z,24.91
2023-05-06T05:21:00.199Z,24.89
2023-05-06T05:22:00.240Z,24.88
2023-05-06T05:23:00.278Z,24.84
2023-05-06T05:24:00.340Z,24.84
2023-05-06T05:25:00.365Z,24.84
2023-05-06T05:26:00.414Z,24.84
2023-05-06T05:27:00.449Z,24.82
2023-05-06T05:28:00.492Z,24.81
2023-05-06T05:29:00.544Z,24.81
2023-05-06T05:30:00.564Z,24.82
2023-05-06T05:31:00.717Z,24.85
2023-05-06T05:32:00.663Z,24.82
2023-05-06T05:33:00.794Z,24.84
2023-05-06T05:34:00.707Z,24.85
2023-05-06T05:35:00.784Z,24.84
2023-05-06T05:36:00.792Z,24.84
2023-05-06T05:37:00.857Z,24.82
2023-05-06T05:38:00.926Z,24.84
2023-05-06T05:39:01.014Z,24.84
2023-05-06T05:40:01.039Z,24.87
2023-05-06T05:41:01.000Z,24.84
2023-05-06T05:42:01.028Z,24.88
2023-05-06T05:43:01.062Z,24.84
2023-05-06T05:44:01.097Z,24.84
2023-05-06T05:45:01.137Z,24.87
2023-05-06T05:46:01.188Z,24.85
2023-05-06T05:47:01.320Z,24.87
2023-05-06T05:48:01.284Z,24.84
2023-05-06T05:49:01.281Z,24.88
2023-05-06T05:50:01.354Z,24.88
2023-05-06T05:51:01.354Z,24.85
2023-05-06T05:52:01.380Z,24.82
2023-05-06T05:53:01.447Z,24.87
2023-05-06T05:54:01.472Z,24.84
2023-05-06T05:55:01.499Z,24.87
2023-05-06T05:56:01.519Z,24.87
2023-05-06T05:57:01.547Z,24.85
2023-05-06T05:58:01.594Z,24.88
2023-05-06T05:59:01.612Z,24.85
2023-05-06T06:00:01.647Z,24.88
2023-05-06T06:01:01.722Z,24.88
2023-05-06T06:02:01.705Z,24.89
2023-05-06T06:03:01.926Z,24.89
2023-05-06T06:04:01.896Z,24.89
2023-05-06T06:05:01.859Z,24.88
2023-05-06T06:06:01.836Z,24.91
2023-05-06T06:07:01.903Z,24.92
2023-05-06T06:08:03.685Z,24.89
2023-05-06T06:09:01.950Z,24.94
2023-05-06T06:10:01.977Z,24.88
2023-05-06T06:11:02.014Z,24.91
2023-05-06T06:12:02.048Z,24.87
2023-05-06T06:13:02.095Z,24.88
2023-05-06T06:14:02.108Z,24.88
2023-05-06T06:15:02.154Z,24.89
2023-05-06T06:16:02.185Z,24.89
2023-05-06T06:17:02.213Z,24.92
2023-05-06T06:18:02.354Z,24.95
2023-05-06T06:19:02.356Z,24.94
2023-05-06T06:20:02.303Z,24.98
2023-05-06T06:21:02.326Z,24.98
2023-05-06T06:22:02.383Z,24.98
2023-05-06T06:23:02.413Z,24.98
2023-05-06T06:24:02.442Z,24.96
2023-05-06T06:25:02.466Z,24.98
2023-05-06T06:26:02.500Z,25.04
2023-05-06T06:27:02.543Z,25.04
2023-05-06T06:28:02.594Z,25.02
2023-05-06T06:29:02.613Z,25.02
2023-05-06T06:30:02.647Z,25.02
2023-05-06T06:31:02.692Z,25.02
2023-05-06T06:32:02.779Z,25.04
2023-05-06T06:33:02.769Z,25.01
2023-05-06T06:34:02.788Z,25.05
2023-05-06T06:35:02.943Z,25.05
2023-05-06T06:36:02.893Z,25.06
2023-05-06T06:37:02.966Z,25.08
2023-05-06T06:38:03.029Z,25.04
2023-05-06T06:39:03.053Z,25.04
2023-05-06T06:40:03.105Z,25.05
2023-05-06T06:41:03.170Z,25.08
2023-05-06T06:42:03.212Z,25.08
2023-05-06T06:43:03.283Z,25.08
2023-05-06T06:44:03.300Z,25.12
2023-05-06T06:45:03.352Z,25.13
2023-05-06T06:46:03.415Z,25.09
2023-05-06T06:47:03.409Z,25.11
2023-05-06T06:48:03.468Z,25.12
2023-05-06T06:49:03.473Z,25.13
2023-05-06T06:50:03.497Z,25.15
2023-05-06T06:51:03.676Z,25.15
2023-05-06T06:52:03.567Z,25.13
2023-05-06T06:53:04.894Z,25.16
2023-05-06T06:54:03.839Z,25.19
2023-05-06T06:55:03.875Z,25.18
2023-05-06T06:56:03.929Z,25.18
2023-05-06T06:57:03.982Z,25.12
2023-05-06T06:58:04.042Z,25.13
2023-05-06T06:59:04.064Z,25.13
2023-05-06T07:00:04.112Z,25.13
2023-05-06T07:01:04.203Z,25.12
2023-05-06T07:02:04.219Z,25.09
2023-05-06T07:03:04.331Z,25.11
2023-05-06T07:04:05.987Z,25.11
2023-05-06T07:05:04.330Z,25.09
2023-05-06T07:06:04.363Z,25.11
2023-05-06T07:07:04.404Z,25.11
2023-05-06T07:08:04.429Z,25.12
2023-05-06T07:09:04.455Z,25.15
2023-05-06T07:10:04.504Z,25.12
2023-05-06T07:11:04.517Z,25.15
2023-05-06T07:12:04.549Z,25.13
2023-05-06T07:13:04.606Z,25.16
2023-05-06T07:14:04.614Z,25.21
2023-05-06T07:15:04.646Z,25.25
2023-05-06T07:16:04.664Z,25.26
2023-05-06T07:17:04.752Z,25.34
2023-05-06T07:18:04.785Z,25.36
2023-05-06T07:19:04.754Z,25.36
2023-05-06T07:20:04.786Z,25.39
2023-05-06T07:21:04.800Z,25.46
2023-05-06T07:22:04.827Z,25.49
2023-05-06T07:23:04.871Z,25.56
2023-05-06T07:24:04.877Z,25.57
2023-05-06T07:25:04.921Z,25.63
2023-05-06T07:26:04.934Z,25.70
2023-05-06T07:27:04.968Z,25.73
2023-05-06T07:28:05.010Z,25.77
2023-05-06T07:29:05.017Z,25.80
2023-05-06T07:30:05.023Z,25.85
2023-05-06T07:31:05.134Z,25.87
2023-05-06T07:32:05.086Z,25.88
2023-05-06T07:33:05.176Z,25.95
2023-05-06T07:34:05.120Z,25.99
2023-05-06T07:35:05.142Z,26.02
2023-05-06T07:36:05.170Z,26.04
2023-05-06T07:37:05.191Z,26.11
2023-05-06T07:38:05.214Z,26.15
2023-05-06T07:39:05.314Z,26.21
2023-05-06T07:40:05.268Z,26.21
2023-05-06T07:41:05.280Z,26.23
2023-05-06T07:42:05.322Z,26.26
2023-05-06T07:43:05.400Z,26.26
2023-05-06T07:44:05.456Z,26.28
2023-05-06T07:45:05.548Z,26.30
2023-05-06T07:46:05.644Z,26.30
2023-05-06T07:47:05.785Z,26.35
2023-05-06T07:48:05.753Z,26.32
2023-05-06T07:49:05.809Z,26.38
2023-05-06T07:50:05.869Z,26.36
2023-05-06T07:51:05.942Z,26.40
2023-05-06T07:52:06.027Z,26.40
2023-05-06T07:53:06.090Z,26.40
2023-05-06T07:54:06.144Z,26.43
2023-05-06T07:55:06.284Z,26.42
2023-05-06T07:56:06.284Z,26.46
2023-05-06T07:57:06.361Z,26.47
2023-05-06T07:58:06.414Z,26.47
2023-05-06T07:59:06.489Z,26.46
2023-05-06T08:00:06.544Z,26.47
2023-05-06T08:01:06.609Z,26.49
2023-05-06T08:02:06.770Z,26.54
2023-05-06T08:03:06.856Z,26.56
2023-05-06T08:04:06.899Z,26.57
2023-05-06T08:05:06.840Z,26.57
2023-05-06T08:06:06.901Z,26.61
2023-05-06T08:07:06.958Z,26.58
2023-05-06T08:08:07.028Z,26.58
2023-05-06T08:09:07.092Z,26.58
2023-05-06T08:10:07.158Z,26.58
2023-05-06T08:11:07.228Z,26.61
2023-05-06T08:12:07.318Z,26.58
2023-05-06T08:13:07.416Z,26.58
2023-05-06T08:14:07.438Z,26.58
2023-05-06T08:15:07.635Z,26.58
2023-05-06T08:16:07.735Z,26.60
2023-05-06T08:17:07.703Z,26.61
2023-05-06T08:18:18.395Z,26.61
2023-05-06T08:19:08.770Z,26.58
2023-05-06T08:20:07.793Z,26.58
2023-05-06T08:21:07.802Z,26.58
2023-05-06T08:22:07.806Z,26.60
2023-05-06T08:23:07.833Z,26.61
2023-05-06T08:24:07.849Z,26.60
2023-05-06T08:25:08.048Z,26.60
2023-05-06T08:26:07.902Z,26.64
2023-05-06T08:27:07.971Z,26.66
2023-05-06T08:28:07.917Z,26.61
2023-05-06T08:29:07.955Z,26.70
2023-05-06T08:30:07.955Z,26.67
2023-05-06T08:31:08.042Z,26.70
2023-05-06T08:32:08.143Z,26.68
2023-05-06T08:33:08.211Z,26.71
2023-05-06T08:34:08.236Z,26.73
2023-05-06T08:35:08.400Z,26.74
2023-05-06T08:36:08.372Z,26.71
2023-05-06T08:37:08.439Z,26.70
2023-05-06T08:38:08.501Z,26.70
2023-05-06T08:39:08.569Z,26.67
2023-05-06T08:40:08.617Z,26.67
2023-05-06T08:41:08.679Z,26.68
2023-05-06T08:42:08.734Z,26.70
2023-05-06T08:43:08.801Z,26.71
2023-05-06T08:44:08.861Z,26.74
2023-05-06T08:45:09.051Z,26.73
2023-05-06T08:46:08.946Z,26.76
2023-05-06T08:47:08.957Z,26.78
2023-05-06T08:48:08.975Z,26.80
2023-05-06T08:49:08.999Z,26.80
2023-05-06T08:50:09.028Z,26.84
2023-05-06T08:51:09.064Z,26.83
2023-05-06T08:52:09.050Z,26.81
2023-05-06T08:53:09.097Z,26.84
2023-05-06T08:54:09.078Z,26.85
2023-05-06T08:55:09.248Z,26.85
2023-05-06T08:56:09.122Z,26.88
2023-05-06T08:57:11.005Z,26.88
2023-05-06T08:58:09.157Z,26.93
2023-05-06T08:59:09.501Z,26.94
2023-05-06T09:00:09.194Z,26.95
2023-05-06T09:01:09.290Z,26.97
2023-05-06T09:02:09.251Z,26.97
2023-05-06T09:03:09.308Z,27.02
2023-05-06T09:04:09.275Z,27.01
2023-05-06T09:05:09.559Z,27.04
2023-05-06T09:06:09.273Z,27.05
2023-05-06T09:07:09.305Z,27.06
2023-05-06T09:08:09.303Z,27.11
2023-05-06T09:09:09.304Z,27.11
2023-05-06T09:10:09.519Z,27.11
2023-05-06T09:11:09.311Z,27.13
2023-05-06T09:12:09.331Z,27.15
2023-05-06T09:13:09.357Z,27.16
2023-05-06T09:14:09.392Z,27.21
2023-05-06T09:15:09.655Z,27.21
2023-05-06T09:16:09.415Z,27.24
2023-05-06T09:17:09.407Z,27.25
2023-05-06T09:18:09.473Z,27.26
2023-05-06T09:19:09.396Z,27.28
2023-05-06T09:20:09.398Z,27.32
2023-05-06T09:21:09.437Z,27.33
2023-05-06T09:22:09.424Z,27.36
2023-05-06T09:23:09.440Z,27.35
2023-05-06T09:24:09.448Z,27.36
2023-05-06T09:25:09.736Z,27.36
2023-05-06T09:26:09.467Z,27.38
2023-05-06T09:27:10.924Z,27.36
2023-05-06T09:28:09.462Z,27.40
2023-05-06T09:29:09.480Z,27.39
2023-05-06T09:30:09.479Z,27.42
2023-05-06T09:31:09.625Z,27.42
2023-05-06T09:32:09.480Z,27.45
2023-05-06T09:33:09.584Z,27.43
2023-05-06T09:34:09.495Z,27.45
2023-05-06T09:35:09.839Z,27.46
2023-05-06T09:36:09.474Z,27.45
2023-05-06T09:37:09.492Z,27.49
2023-05-06T09:38:09.514Z,27.47
2023-05-06T09:39:09.524Z,27.50
2023-05-06T09:40:09.545Z,27.52
2023-05-06T09:41:09.614Z,27.53
2023-05-06T09:42:09.645Z,27.54
2023-05-06T09:43:09.618Z,27.56
2023-05-06T09:44:09.631Z,27.56
2023-05-06T09:45:09.910Z,27.57
2023-05-06T09:46:09.652Z,27.60
2023-05-06T09:47:09.704Z,27.63
2023-05-06T09:48:09.767Z,27.61
2023-05-06T09:49:09.643Z,27.64
2023-05-06T09:50:09.644Z,27.63
2023-05-06T09:51:09.650Z,27.64
2023-05-06T09:52:09.656Z,27.68
2023-05-06T09:53:09.657Z,27.68
2023-05-06T09:54:09.661Z,27.68
2023-05-06T09:55:09.994Z,27.67
2023-05-06T09:56:09.661Z,27.70
2023-05-06T09:57:09.670Z,27.71
2023-05-06T09:58:09.675Z,27.71
2023-05-06T09:59:09.681Z,27.70
2023-05-06T10:00:09.669Z,27.73
2023-05-06T10:01:09.826Z,27.73
2023-05-06T10:02:09.795Z,27.73
2023-05-06T10:03:10.044Z,27.75
2023-05-06T10:04:10.332Z,27.73
2023-05-06T10:05:10.483Z,27.71
2023-05-06T10:06:10.036Z,27.74
2023-05-06T10:07:10.092Z,27.74
2023-05-06T10:08:10.131Z,27.74
2023-05-06T10:09:10.230Z,27.74
2023-05-06T10:10:10.232Z,27.75
2023-05-06T10:11:10.304Z,27.75
2023-05-06T10:12:10.335Z,27.73
2023-05-06T10:13:10.446Z,27.77
2023-05-06T10:14:10.410Z,27.79
2023-05-06T10:15:10.611Z,27.79
2023-05-06T10:16:10.531Z,27.77
2023-05-06T10:17:10.516Z,27.75
2023-05-06T10:18:10.640Z,27.77
2023-05-06T10:19:10.802Z,27.77
2023-05-06T10:20:10.691Z,27.81
2023-05-06T10:21:10.728Z,27.79
2023-05-06T10:22:10.762Z,27.79
2023-05-06T10:23:10.769Z,27.79
2023-05-06T10:24:10.768Z,27.80
2023-05-06T10:25:10.956Z,27.81
2023-05-06T10:26:10.789Z,27.80
2023-05-06T10:27:10.772Z,27.81
2023-05-06T10:28:19.242Z,27.81
2023-05-06T10:29:11.802Z,27.81
2023-05-06T10:30:10.766Z,27.83
2023-05-06T10:31:10.819Z,27.81
2023-05-06T10:32:10.741Z,27.81
2023-05-06T10:33:10.743Z,27.83
2023-05-06T10:34:10.746Z,27.85
2023-05-06T10:35:11.085Z,27.85
2023-05-06T10:36:10.736Z,27.85
2023-05-06T10:37:10.726Z,27.87
2023-05-06T10:38:10.757Z,27.90
2023-05-06T10:39:10.829Z,27.90
2023-05-06T10:40:10.899Z,27.88
2023-05-06T10:41:10.930Z,27.90
2023-05-06T10:42:10.999Z,27.90
2023-05-06T10:43:11.103Z,27.90
2023-05-06T10:44:11.138Z,27.94
2023-05-06T10:45:11.406Z,27.91
2023-05-06T10:46:11.343Z,27.92
2023-05-06T10:47:11.350Z,27.94
2023-05-06T10:48:11.432Z,27.95
2023-05-06T10:49:11.723Z,27.97
2023-05-06T10:50:11.531Z,27.97
2023-05-06T10:51:11.719Z,27.94
2023-05-06T10:52:11.660Z,27.94
2023-05-06T10:53:11.725Z,27.95
2023-05-06T10:54:11.795Z,27.97
2023-05-06T10:55:12.073Z,27.95
2023-05-06T10:56:11.945Z,28.00
2023-05-06T10:57:12.002Z,27.98
2023-05-06T10:58:12.045Z,28.00
2023-05-06T10:59:12.126Z,28.01
2023-05-06T11:00:12.189Z,28.01
2023-05-06T11:01:12.262Z,28.02
2023-05-06T11:02:12.352Z,28.01
2023-05-06T11:03:12.479Z,28.04
2023-05-06T11:04:12.436Z,28.07
2023-05-06T11:05:12.605Z,28.04
2023-05-06T11:06:12.570Z,28.08
2023-05-06T11:07:12.640Z,28.08
2023-05-06T11:08:12.634Z,28.11
2023-05-06T11:09:12.626Z,28.11
2023-05-06T11:10:12.622Z,28.12
2023-05-06T11:11:12.611Z,28.15
2023-05-06T11:12:12.614Z,28.15
2023-05-06T11:13:12.658Z,28.16
2023-05-06T11:14:12.611Z,28.16
2023-05-06T11:15:12.605Z,28.16
2023-05-06T11:16:12.642Z,28.19
2023-05-06T11:17:12.692Z,28.19
2023-05-06T11:18:12.725Z,28.19
2023-05-06T11:19:12.794Z,28.19
2023-05-06T11:20:12.841Z,28.22
2023-05-06T11:21:12.905Z,28.23
2023-05-06T11:22:12.947Z,28.23
2023-05-06T11:23:13.055Z,28.28
2023-05-06T11:24:13.054Z,28.26
2023-05-06T11:25:13.103Z,28.26
2023-05-06T11:26:13.181Z,28.29
2023-05-06T11:27:13.192Z,28.29
2023-05-06T11:28:13.196Z,28.28
2023-05-06T11:29:13.188Z,28.35
2023-05-06T11:30:13.207Z,28.36
2023-05-06T11:31:13.207Z,28.35
2023-05-06T11:32:13.165Z,28.36
2023-05-06T11:33:13.159Z,28.35
2023-05-06T11:34:13.173Z,28.38
2023-05-06T11:35:13.156Z,28.38
2023-05-06T11:36:13.164Z,28.39
2023-05-06T11:37:13.160Z,28.40
2023-05-06T11:38:13.173Z,28.42
2023-05-06T11:39:13.225Z,28.42
2023-05-06T11:40:13.295Z,28.43
2023-05-06T11:41:13.276Z,28.42
2023-05-06T11:42:13.275Z,28.39
2023-05-06T11:43:13.281Z,28.42
2023-05-06T11:44:13.287Z,28.43
2023-05-06T11:45:13.281Z,28.43
2023-05-06T11:46:13.294Z,28.43
2023-05-06T11:47:13.293Z,28.42
2023-05-06T11:48:13.292Z,28.43
2023-05-06T11:49:13.314Z,28.43
2023-05-06T11:50:13.396Z,28.43
2023-05-06T11:51:13.296Z,28.45
2023-05-06T11:52:13.303Z,28.47
2023-05-06T11:53:13.304Z,28.46
2023-05-06T11:54:13.297Z,28.47
2023-05-06T11:55:13.357Z,28.49
2023-05-06T11:56:13.297Z,28.50
2023-05-06T11:57:13.292Z,28.52
2023-05-06T11:58:13.296Z,28.53
2023-05-06T11:59:13.295Z,28.57
2023-05-06T12:00:13.468Z,28.60
2023-05-06T12:01:13.301Z,28.60
2023-05-06T12:02:13.311Z,28.62
2023-05-06T12:03:13.332Z,28.62
2023-05-06T12:04:13.425Z,28.62
2023-05-06T12:05:13.246Z,28.64
2023-05-06T12:06:13.235Z,28.66
2023-05-06T12:07:13.225Z,28.64
2023-05-06T12:08:23.600Z,28.66
2023-05-06T12:09:14.211Z,28.62
2023-05-06T12:10:13.415Z,28.62
2023-05-06T12:11:13.272Z,28.63
2023-05-06T12:12:13.193Z,28.60
2023-05-06T12:13:13.245Z,28.63
2023-05-06T12:14:13.200Z,28.63
2023-05-06T12:15:13.205Z,28.66
2023-05-06T12:16:13.235Z,28.66
2023-05-06T12:17:13.193Z,28.66
2023-05-06T12:18:13.170Z,28.67
2023-05-06T12:19:13.169Z,28.69
2023-05-06T12:20:13.292Z,28.69
2023-05-06T12:21:13.185Z,28.70
2023-05-06T12:22:13.189Z,28.70
2023-05-06T12:23:13.179Z,28.70
2023-05-06T12:24:13.242Z,28.70
2023-05-06T12:25:13.189Z,28.74
2023-05-06T12:26:13.179Z,28.71
2023-05-06T12:27:13.237Z,28.69
2023-05-06T12:28:13.165Z,28.70
2023-05-06T12:29:13.157Z,28.71
2023-05-06T12:30:13.445Z,28.74
2023-05-06T12:31:13.173Z,28.77
2023-05-06T12:32:13.159Z,28.78
2023-05-06T12:33:13.144Z,28.84
2023-05-06T12:34:13.137Z,28.84
2023-05-06T12:35:13.144Z,28.84
2023-05-06T12:36:13.185Z,28.87
2023-05-06T12:37:13.233Z,28.89
2023-05-06T12:38:13.255Z,28.86
2023-05-06T12:39:13.322Z,28.90
2023-05-06T12:40:13.432Z,28.90
2023-05-06T12:41:13.365Z,28.90
2023-05-06T12:42:13.400Z,28.90
2023-05-06T12:43:13.467Z,28.94
2023-05-06T12:44:13.381Z,28.93
2023-05-06T12:45:13.363Z,28.95
2023-05-06T12:46:13.402Z,28.97
2023-05-06T12:47:13.350Z,28.97
2023-05-06T12:48:13.380Z,29.00
2023-05-06T12:49:13.322Z,29.01
2023-05-06T12:50:13.498Z,29.01
2023-05-06T12:51:13.294Z,29.04
2023-05-06T12:52:13.274Z,29.01
2023-05-06T12:53:13.310Z,29.07
2023-05-06T12:54:13.249Z,29.09